sensor_id;sensor_type;location;lat;lon;timestamp;P1;durP1;ratioP1;P2;durP2;ratioP2
8317;SDS011;4196;48.926;8.964;2022-12-18T00:01:56;53.40;;;20.70;;
8317;SDS011;4196;48.926;8.964;2022-12-18T00:04:45;46.60;;;21.67;;
8317;SDS011;4196;48.926;8.964;2022-12-18T00:07:32;53.07;;;24.17;;
8317;SDS011;4196;48.926;8.964;2022-12-18T00:10:18;57.20;;;23.50;;
8317;SDS011;4196;48.926;8.964;2022-12-18T00:13:05;70.33;;;22.47;;
8317;SDS011;4196;48.926;8.964;2022-12-18T00:15:55;53.93;;;20.83;;
8317;SDS011;4196;48.926;8.964;2022-12-18T00:18:42;48.83;;;20.53;;
8317;SDS011;4196;48.926;8.964;2022-12-18T00:21:29;48.23;;;20.77;;
8317;SDS011;4196;48.926;8.964;2022-12-18T00:24:16;36.43;;;18.90;;
8317;SDS011;4196;48.926;8.964;2022-12-18T00:27:04;40.57;;;18.90;;
8317;SDS011;4196;48.926;8.964;2022-12-18T00:29:51;48.23;;;20.13;;
8317;SDS011;4196;48.926;8.964;2022-12-18T00:32:37;43.13;;;17.43;;
8317;SDS011;4196;48.926;8.964;2022-12-18T00:35:23;48.03;;;19.03;;
8317;SDS011;4196;48.926;8.964;2022-12-18T00:38:11;41.77;;;18.40;;
8317;SDS011;4196;48.926;8.964;2022-12-18T00:40:58;52.27;;;21.53;;
8317;SDS011;4196;48.926;8.964;2022-12-18T00:43:44;55.00;;;19.73;;
8317;SDS011;4196;48.926;8.964;2022-12-18T00:46:31;57.03;;;22.37;;
8317;SDS011;4196;48.926;8.964;2022-12-18T00:49:18;39.33;;;18.23;;
8317;SDS011;4196;48.926;8.964;2022-12-18T00:52:06;48.40;;;20.07;;
8317;SDS011;4196;48.926;8.964;2022-12-18T00:54:52;49.10;;;19.93;;
8317;SDS011;4196;48.926;8.964;2022-12-18T00:57:38;46.93;;;18.57;;
8317;SDS011;4196;48.926;8.964;2022-12-18T01:00:25;50.90;;;19.47;;
8317;SDS011;4196;48.926;8.964;2022-12-18T01:03:14;43.27;;;18.93;;
8317;SDS011;4196;48.926;8.964;2022-12-18T01:06:06;48.37;;;20.47;;
8317;SDS011;4196;48.926;8.964;2022-12-18T01:08:53;54.10;;;22.00;;
8317;SDS011;4196;48.926;8.964;2022-12-18T01:11:40;40.60;;;18.23;;
8317;SDS011;4196;48.926;8.964;2022-12-18T01:14:29;43.93;;;20.40;;
8317;SDS011;4196;48.926;8.964;2022-12-18T01:17:15;53.43;;;18.60;;
8317;SDS011;4196;48.926;8.964;2022-12-18T01:20:01;52.33;;;20.50;;
8317;SDS011;4196;48.926;8.964;2022-12-18T01:22:51;52.43;;;20.27;;
8317;SDS011;4196;48.926;8.964;2022-12-18T01:25:37;51.80;;;20.67;;
8317;SDS011;4196;48.926;8.964;2022-12-18T01:28:27;48.90;;;21.00;;
8317;SDS011;4196;48.926;8.964;2022-12-18T01:31:15;48.47;;;19.47;;
8317;SDS011;4196;48.926;8.964;2022-12-18T01:34:05;39.20;;;16.80;;
8317;SDS011;4196;48.926;8.964;2022-12-18T01:36:53;42.87;;;16.67;;
8317;SDS011;4196;48.926;8.964;2022-12-18T01:39:40;46.97;;;20.73;;
8317;SDS011;4196;48.926;8.964;2022-12-18T01:42:26;42.43;;;17.63;;
8317;SDS011;4196;48.926;8.964;2022-12-18T01:48:06;43.13;;;18.53;;
8317;SDS011;4196;48.926;8.964;2022-12-18T01:50:55;54.03;;;19.60;;
8317;SDS011;4196;48.926;8.964;2022-12-18T01:53:42;47.17;;;18.57;;
8317;SDS011;4196;48.926;8.964;2022-12-18T01:56:30;41.03;;;17.60;;
8317;SDS011;4196;48.926;8.964;2022-12-18T01:59:17;43.23;;;17.70;;
8317;SDS011;4196;48.926;8.964;2022-12-18T02:02:03;46.37;;;17.73;;
8317;SDS011;4196;48.926;8.964;2022-12-18T02:04:50;40.03;;;18.40;;
8317;SDS011;4196;48.926;8.964;2022-12-18T02:10:36;43.33;;;16.87;;
8317;SDS011;4196;48.926;8.964;2022-12-18T02:20:02;44.17;;;20.03;;
8317;SDS011;4196;48.926;8.964;2022-12-18T02:23:28;51.13;;;21.43;;
8317;SDS011;4196;48.926;8.964;2022-12-18T02:29:20;47.83;;;17.83;;
8317;SDS011;4196;48.926;8.964;2022-12-18T02:32:48;45.67;;;17.47;;
8317;SDS011;4196;48.926;8.964;2022-12-18T02:35:38;42.77;;;18.50;;
8317;SDS011;4196;48.926;8.964;2022-12-18T02:38:27;47.10;;;19.83;;
8317;SDS011;4196;48.926;8.964;2022-12-18T02:41:20;46.80;;;21.03;;
8317;SDS011;4196;48.926;8.964;2022-12-18T02:44:11;45.40;;;18.97;;
8317;SDS011;4196;48.926;8.964;2022-12-18T02:47:01;52.17;;;19.60;;
8317;SDS011;4196;48.926;8.964;2022-12-18T02:52:39;48.07;;;18.87;;
8317;SDS011;4196;48.926;8.964;2022-12-18T02:55:44;48.57;;;18.83;;
8317;SDS011;4196;48.926;8.964;2022-12-18T03:02:05;42.77;;;19.47;;
8317;SDS011;4196;48.926;8.964;2022-12-18T03:07:56;39.30;;;17.60;;
8317;SDS011;4196;48.926;8.964;2022-12-18T03:10:51;37.57;;;17.03;;
8317;SDS011;4196;48.926;8.964;2022-12-18T03:13:44;39.27;;;18.50;;
8317;SDS011;4196;48.926;8.964;2022-12-18T03:16:38;44.87;;;17.93;;
8317;SDS011;4196;48.926;8.964;2022-12-18T03:19:28;50.50;;;17.07;;
8317;SDS011;4196;48.926;8.964;2022-12-18T03:22:18;34.50;;;16.87;;
8317;SDS011;4196;48.926;8.964;2022-12-18T03:25:12;51.17;;;20.90;;
8317;SDS011;4196;48.926;8.964;2022-12-18T03:28:02;44.70;;;18.83;;
8317;SDS011;4196;48.926;8.964;2022-12-18T03:30:56;44.00;;;18.23;;
8317;SDS011;4196;48.926;8.964;2022-12-18T03:33:53;53.83;;;20.53;;
8317;SDS011;4196;48.926;8.964;2022-12-18T03:36:48;45.17;;;19.00;;
8317;SDS011;4196;48.926;8.964;2022-12-18T03:39:35;43.00;;;18.00;;
8317;SDS011;4196;48.926;8.964;2022-12-18T03:42:32;45.80;;;17.60;;
8317;SDS011;4196;48.926;8.964;2022-12-18T03:45:41;48.63;;;20.07;;
8317;SDS011;4196;48.926;8.964;2022-12-18T03:48:37;44.33;;;19.53;;
8317;SDS011;4196;48.926;8.964;2022-12-18T03:51:38;46.67;;;20.37;;
8317;SDS011;4196;48.926;8.964;2022-12-18T03:54:29;40.07;;;17.57;;
8317;SDS011;4196;48.926;8.964;2022-12-18T03:57:26;46.37;;;17.63;;
8317;SDS011;4196;48.926;8.964;2022-12-18T04:00:17;42.27;;;17.50;;
8317;SDS011;4196;48.926;8.964;2022-12-18T04:03:23;44.57;;;19.40;;
8317;SDS011;4196;48.926;8.964;2022-12-18T04:06:12;62.70;;;19.97;;
8317;SDS011;4196;48.926;8.964;2022-12-18T04:09:02;50.97;;;20.10;;
8317;SDS011;4196;48.926;8.964;2022-12-18T04:11:53;48.13;;;22.07;;
8317;SDS011;4196;48.926;8.964;2022-12-18T04:14:40;39.70;;;17.53;;
8317;SDS011;4196;48.926;8.964;2022-12-18T04:17:28;43.87;;;20.00;;
8317;SDS011;4196;48.926;8.964;2022-12-18T04:20:16;60.43;;;23.77;;
8317;SDS011;4196;48.926;8.964;2022-12-18T04:23:04;46.70;;;18.40;;
8317;SDS011;4196;48.926;8.964;2022-12-18T04:25:51;46.13;;;20.37;;
8317;SDS011;4196;48.926;8.964;2022-12-18T04:28:51;48.53;;;21.07;;
8317;SDS011;4196;48.926;8.964;2022-12-18T04:31:38;41.40;;;17.70;;
8317;SDS011;4196;48.926;8.964;2022-12-18T04:34:24;47.63;;;19.87;;
8317;SDS011;4196;48.926;8.964;2022-12-18T04:37:12;46.47;;;17.03;;
8317;SDS011;4196;48.926;8.964;2022-12-18T04:39:59;48.23;;;17.40;;
8317;SDS011;4196;48.926;8.964;2022-12-18T04:42:55;40.93;;;17.80;;
8317;SDS011;4196;48.926;8.964;2022-12-18T04:45:41;43.00;;;17.03;;
8317;SDS011;4196;48.926;8.964;2022-12-18T04:48:28;43.53;;;19.17;;
8317;SDS011;4196;48.926;8.964;2022-12-18T04:51:14;45.70;;;18.47;;
8317;SDS011;4196;48.926;8.964;2022-12-18T04:54:00;46.97;;;19.30;;
8317;SDS011;4196;48.926;8.964;2022-12-18T04:56:47;33.07;;;16.57;;
8317;SDS011;4196;48.926;8.964;2022-12-18T05:03:59;42.77;;;19.60;;
8317;SDS011;4196;48.926;8.964;2022-12-18T05:06:45;31.57;;;14.07;;
8317;SDS011;4196;48.926;8.964;2022-12-18T05:09:32;46.10;;;15.80;;
8317;SDS011;4196;48.926;8.964;2022-12-18T05:12:19;37.17;;;15.60;;
8317;SDS011;4196;48.926;8.964;2022-12-18T05:15:05;45.93;;;17.70;;
8317;SDS011;4196;48.926;8.964;2022-12-18T05:17:52;36.33;;;15.30;;
8317;SDS011;4196;48.926;8.964;2022-12-18T05:20:38;39.20;;;16.80;;
8317;SDS011;4196;48.926;8.964;2022-12-18T05:23:24;40.73;;;15.90;;
8317;SDS011;4196;48.926;8.964;2022-12-18T05:26:16;40.63;;;16.53;;
8317;SDS011;4196;48.926;8.964;2022-12-18T05:29:03;34.63;;;14.67;;
8317;SDS011;4196;48.926;8.964;2022-12-18T05:31:50;36.27;;;16.00;;
8317;SDS011;4196;48.926;8.964;2022-12-18T05:34:36;42.30;;;15.90;;
8317;SDS011;4196;48.926;8.964;2022-12-18T05:37:22;40.93;;;17.13;;
8317;SDS011;4196;48.926;8.964;2022-12-18T05:40:09;42.20;;;16.77;;
8317;SDS011;4196;48.926;8.964;2022-12-18T05:42:56;41.13;;;16.93;;
8317;SDS011;4196;48.926;8.964;2022-12-18T05:45:43;42.10;;;16.73;;
8317;SDS011;4196;48.926;8.964;2022-12-18T05:48:30;42.03;;;16.00;;
8317;SDS011;4196;48.926;8.964;2022-12-18T05:51:17;39.40;;;15.93;;
8317;SDS011;4196;48.926;8.964;2022-12-18T05:54:05;50.13;;;17.43;;
8317;SDS011;4196;48.926;8.964;2022-12-18T05:56:52;41.00;;;18.10;;
8317;SDS011;4196;48.926;8.964;2022-12-18T05:59:38;43.73;;;16.27;;
8317;SDS011;4196;48.926;8.964;2022-12-18T06:02:25;43.10;;;18.20;;
8317;SDS011;4196;48.926;8.964;2022-12-18T06:05:12;43.87;;;15.27;;
8317;SDS011;4196;48.926;8.964;2022-12-18T06:07:59;34.47;;;16.67;;
8317;SDS011;4196;48.926;8.964;2022-12-18T06:10:49;39.90;;;17.17;;
8317;SDS011;4196;48.926;8.964;2022-12-18T06:13:37;39.43;;;16.70;;
8317;SDS011;4196;48.926;8.964;2022-12-18T06:16:25;39.77;;;16.13;;
8317;SDS011;4196;48.926;8.964;2022-12-18T06:19:15;40.90;;;14.63;;
8317;SDS011;4196;48.926;8.964;2022-12-18T06:22:02;31.67;;;14.63;;
8317;SDS011;4196;48.926;8.964;2022-12-18T06:24:49;31.87;;;14.57;;
8317;SDS011;4196;48.926;8.964;2022-12-18T06:27:35;34.87;;;14.33;;
8317;SDS011;4196;48.926;8.964;2022-12-18T06:30:21;39.60;;;15.00;;
8317;SDS011;4196;48.926;8.964;2022-12-18T06:33:08;32.97;;;16.10;;
8317;SDS011;4196;48.926;8.964;2022-12-18T06:35:59;37.57;;;15.83;;
8317;SDS011;4196;48.926;8.964;2022-12-18T06:38:50;33.17;;;14.13;;
8317;SDS011;4196;48.926;8.964;2022-12-18T06:41:36;30.37;;;14.73;;
8317;SDS011;4196;48.926;8.964;2022-12-18T06:44:24;39.57;;;15.53;;
8317;SDS011;4196;48.926;8.964;2022-12-18T06:47:11;36.43;;;15.27;;
8317;SDS011;4196;48.926;8.964;2022-12-18T06:49:58;35.57;;;15.30;;
8317;SDS011;4196;48.926;8.964;2022-12-18T06:52:45;37.33;;;17.00;;
8317;SDS011;4196;48.926;8.964;2022-12-18T06:55:31;35.43;;;14.83;;
8317;SDS011;4196;48.926;8.964;2022-12-18T06:58:18;36.87;;;15.33;;
8317;SDS011;4196;48.926;8.964;2022-12-18T07:01:05;37.43;;;15.17;;
8317;SDS011;4196;48.926;8.964;2022-12-18T07:03:54;36.27;;;16.73;;
8317;SDS011;4196;48.926;8.964;2022-12-18T07:06:42;31.80;;;14.33;;
8317;SDS011;4196;48.926;8.964;2022-12-18T07:09:28;28.73;;;12.97;;
8317;SDS011;4196;48.926;8.964;2022-12-18T07:12:14;33.07;;;15.70;;
8317;SDS011;4196;48.926;8.964;2022-12-18T07:15:01;30.97;;;14.40;;
8317;SDS011;4196;48.926;8.964;2022-12-18T07:17:50;36.03;;;16.43;;
8317;SDS011;4196;48.926;8.964;2022-12-18T07:20:37;37.83;;;14.17;;
8317;SDS011;4196;48.926;8.964;2022-12-18T07:23:23;37.77;;;16.07;;
8317;SDS011;4196;48.926;8.964;2022-12-18T07:26:13;39.73;;;16.87;;
8317;SDS011;4196;48.926;8.964;2022-12-18T07:29:01;41.53;;;19.60;;
8317;SDS011;4196;48.926;8.964;2022-12-18T07:31:47;38.43;;;17.60;;
8317;SDS011;4196;48.926;8.964;2022-12-18T07:34:35;37.97;;;19.10;;
8317;SDS011;4196;48.926;8.964;2022-12-18T07:37:21;30.03;;;15.17;;
8317;SDS011;4196;48.926;8.964;2022-12-18T07:40:08;30.10;;;13.47;;
8317;SDS011;4196;48.926;8.964;2022-12-18T07:42:55;26.47;;;13.53;;
8317;SDS011;4196;48.926;8.964;2022-12-18T07:45:41;33.07;;;12.80;;
8317;SDS011;4196;48.926;8.964;2022-12-18T07:48:28;34.97;;;15.60;;
8317;SDS011;4196;48.926;8.964;2022-12-18T07:51:15;29.63;;;13.43;;
8317;SDS011;4196;48.926;8.964;2022-12-18T07:54:03;33.83;;;13.47;;
8317;SDS011;4196;48.926;8.964;2022-12-18T07:56:51;33.27;;;14.27;;
8317;SDS011;4196;48.926;8.964;2022-12-18T07:59:37;33.37;;;14.73;;
8317;SDS011;4196;48.926;8.964;2022-12-18T08:02:24;35.00;;;15.97;;
8317;SDS011;4196;48.926;8.964;2022-12-18T08:05:10;26.83;;;13.47;;
8317;SDS011;4196;48.926;8.964;2022-12-18T08:07:57;32.90;;;13.70;;
8317;SDS011;4196;48.926;8.964;2022-12-18T08:10:44;33.60;;;13.30;;
8317;SDS011;4196;48.926;8.964;2022-12-18T08:13:31;39.40;;;16.70;;
8317;SDS011;4196;48.926;8.964;2022-12-18T08:16:18;28.67;;;12.90;;
8317;SDS011;4196;48.926;8.964;2022-12-18T08:19:06;33.57;;;13.43;;
8317;SDS011;4196;48.926;8.964;2022-12-18T08:21:52;32.70;;;13.80;;
8317;SDS011;4196;48.926;8.964;2022-12-18T08:24:39;31.30;;;13.37;;
8317;SDS011;4196;48.926;8.964;2022-12-18T08:27:25;32.13;;;13.27;;
8317;SDS011;4196;48.926;8.964;2022-12-18T08:30:15;37.30;;;15.37;;
8317;SDS011;4196;48.926;8.964;2022-12-18T08:33:01;33.90;;;14.63;;
8317;SDS011;4196;48.926;8.964;2022-12-18T08:35:48;36.53;;;14.57;;
8317;SDS011;4196;48.926;8.964;2022-12-18T08:38:34;35.27;;;14.80;;
8317;SDS011;4196;48.926;8.964;2022-12-18T08:41:21;27.87;;;12.47;;
8317;SDS011;4196;48.926;8.964;2022-12-18T08:44:07;27.70;;;14.70;;
8317;SDS011;4196;48.926;8.964;2022-12-18T08:47:26;32.13;;;14.37;;
8317;SDS011;4196;48.926;8.964;2022-12-18T08:50:13;36.77;;;15.73;;
8317;SDS011;4196;48.926;8.964;2022-12-18T08:53:00;45.00;;;18.20;;
8317;SDS011;4196;48.926;8.964;2022-12-18T08:55:47;37.03;;;15.97;;
8317;SDS011;4196;48.926;8.964;2022-12-18T08:58:35;39.67;;;15.57;;
8317;SDS011;4196;48.926;8.964;2022-12-18T09:01:21;33.80;;;13.87;;
8317;SDS011;4196;48.926;8.964;2022-12-18T09:04:09;31.47;;;14.27;;
8317;SDS011;4196;48.926;8.964;2022-12-18T09:06:56;34.73;;;14.30;;
8317;SDS011;4196;48.926;8.964;2022-12-18T09:09:42;30.57;;;12.13;;
8317;SDS011;4196;48.926;8.964;2022-12-18T09:12:28;31.00;;;14.73;;
8317;SDS011;4196;48.926;8.964;2022-12-18T09:15:15;28.07;;;14.27;;
8317;SDS011;4196;48.926;8.964;2022-12-18T09:18:01;31.67;;;15.80;;
8317;SDS011;4196;48.926;8.964;2022-12-18T09:20:48;34.17;;;13.93;;
8317;SDS011;4196;48.926;8.964;2022-12-18T09:23:36;33.97;;;14.07;;
8317;SDS011;4196;48.926;8.964;2022-12-18T09:26:22;30.07;;;12.73;;
8317;SDS011;4196;48.926;8.964;2022-12-18T09:29:10;31.70;;;14.33;;
8317;SDS011;4196;48.926;8.964;2022-12-18T09:31:56;34.67;;;14.50;;
8317;SDS011;4196;48.926;8.964;2022-12-18T09:34:42;33.53;;;13.37;;
8317;SDS011;4196;48.926;8.964;2022-12-18T09:37:29;34.53;;;13.83;;
8317;SDS011;4196;48.926;8.964;2022-12-18T09:40:16;35.27;;;14.50;;
8317;SDS011;4196;48.926;8.964;2022-12-18T09:43:05;29.13;;;14.13;;
8317;SDS011;4196;48.926;8.964;2022-12-18T09:45:55;25.43;;;11.03;;
8317;SDS011;4196;48.926;8.964;2022-12-18T09:48:47;30.87;;;13.23;;
8317;SDS011;4196;48.926;8.964;2022-12-18T09:51:38;32.90;;;13.47;;
8317;SDS011;4196;48.926;8.964;2022-12-18T09:54:48;36.33;;;14.60;;
8317;SDS011;4196;48.926;8.964;2022-12-18T09:57:44;32.93;;;14.37;;
8317;SDS011;4196;48.926;8.964;2022-12-18T10:00:34;32.93;;;14.40;;
8317;SDS011;4196;48.926;8.964;2022-12-18T10:03:20;35.03;;;13.77;;
8317;SDS011;4196;48.926;8.964;2022-12-18T10:06:11;34.30;;;13.70;;
8317;SDS011;4196;48.926;8.964;2022-12-18T10:15:08;35.80;;;13.50;;
8317;SDS011;4196;48.926;8.964;2022-12-18T10:18:15;30.90;;;12.73;;
8317;SDS011;4196;48.926;8.964;2022-12-18T10:21:45;30.90;;;15.03;;
8317;SDS011;4196;48.926;8.964;2022-12-18T10:24:42;36.37;;;14.00;;
8317;SDS011;4196;48.926;8.964;2022-12-18T10:28:06;34.77;;;12.03;;
8317;SDS011;4196;48.926;8.964;2022-12-18T10:30:56;28.87;;;13.33;;
8317;SDS011;4196;48.926;8.964;2022-12-18T10:33:44;37.03;;;14.83;;
8317;SDS011;4196;48.926;8.964;2022-12-18T10:36:30;29.83;;;15.17;;
8317;SDS011;4196;48.926;8.964;2022-12-18T10:42:23;25.00;;;12.07;;
8317;SDS011;4196;48.926;8.964;2022-12-18T10:47:58;38.30;;;15.13;;
8317;SDS011;4196;48.926;8.964;2022-12-18T10:50:46;42.57;;;14.23;;
8317;SDS011;4196;48.926;8.964;2022-12-18T10:53:56;25.33;;;11.60;;
8317;SDS011;4196;48.926;8.964;2022-12-18T10:56:49;28.33;;;11.93;;
8317;SDS011;4196;48.926;8.964;2022-12-18T10:59:38;31.33;;;11.60;;
8317;SDS011;4196;48.926;8.964;2022-12-18T11:02:37;29.63;;;12.17;;
8317;SDS011;4196;48.926;8.964;2022-12-18T11:05:25;29.73;;;12.30;;
8317;SDS011;4196;48.926;8.964;2022-12-18T11:08:19;26.30;;;12.70;;
8317;SDS011;4196;48.926;8.964;2022-12-18T11:11:16;31.17;;;13.53;;
8317;SDS011;4196;48.926;8.964;2022-12-18T11:14:12;29.07;;;11.80;;
8317;SDS011;4196;48.926;8.964;2022-12-18T11:17:04;28.50;;;12.90;;
8317;SDS011;4196;48.926;8.964;2022-12-18T11:20:46;26.37;;;12.10;;
8317;SDS011;4196;48.926;8.964;2022-12-18T11:23:25;30.47;;;13.17;;
8317;SDS011;4196;48.926;8.964;2022-12-18T11:26:12;24.10;;;11.60;;
8317;SDS011;4196;48.926;8.964;2022-12-18T11:29:09;33.57;;;14.20;;
8317;SDS011;4196;48.926;8.964;2022-12-18T11:35:19;23.20;;;12.03;;
8317;SDS011;4196;48.926;8.964;2022-12-18T11:38:22;25.50;;;10.30;;
8317;SDS011;4196;48.926;8.964;2022-12-18T11:41:30;29.00;;;12.30;;
8317;SDS011;4196;48.926;8.964;2022-12-18T11:44:43;31.67;;;13.50;;
8317;SDS011;4196;48.926;8.964;2022-12-18T11:53:23;22.57;;;10.73;;
8317;SDS011;4196;48.926;8.964;2022-12-18T11:56:17;27.23;;;10.53;;
8317;SDS011;4196;48.926;8.964;2022-12-18T11:59:21;25.97;;;11.50;;
8317;SDS011;4196;48.926;8.964;2022-12-18T12:11:47;20.33;;;9.87;;
8317;SDS011;4196;48.926;8.964;2022-12-18T12:30:16;26.10;;;11.10;;
8317;SDS011;4196;48.926;8.964;2022-12-18T12:36:41;22.10;;;11.40;;
8317;SDS011;4196;48.926;8.964;2022-12-18T12:39:47;24.80;;;10.67;;
8317;SDS011;4196;48.926;8.964;2022-12-18T12:42:35;20.23;;;10.60;;
8317;SDS011;4196;48.926;8.964;2022-12-18T12:45:48;22.30;;;10.03;;
8317;SDS011;4196;48.926;8.964;2022-12-18T12:48:56;23.30;;;9.87;;
8317;SDS011;4196;48.926;8.964;2022-12-18T12:51:51;24.90;;;10.60;;
8317;SDS011;4196;48.926;8.964;2022-12-18T12:54:47;23.63;;;11.60;;
8317;SDS011;4196;48.926;8.964;2022-12-18T12:57:58;29.60;;;11.53;;
8317;SDS011;4196;48.926;8.964;2022-12-18T13:03:58;24.10;;;11.27;;
8317;SDS011;4196;48.926;8.964;2022-12-18T13:16:05;22.47;;;9.97;;
8317;SDS011;4196;48.926;8.964;2022-12-18T13:18:54;20.53;;;9.20;;
8317;SDS011;4196;48.926;8.964;2022-12-18T13:21:45;24.83;;;11.17;;
8317;SDS011;4196;48.926;8.964;2022-12-18T13:24:40;25.37;;;11.63;;
8317;SDS011;4196;48.926;8.964;2022-12-18T13:36:28;30.07;;;11.97;;
8317;SDS011;4196;48.926;8.964;2022-12-18T13:45:40;24.63;;;10.03;;
8317;SDS011;4196;48.926;8.964;2022-12-18T13:48:32;28.23;;;12.27;;
8317;SDS011;4196;48.926;8.964;2022-12-18T13:51:23;32.67;;;12.87;;
8317;SDS011;4196;48.926;8.964;2022-12-18T13:57:38;30.47;;;11.80;;
8317;SDS011;4196;48.926;8.964;2022-12-18T14:00:30;23.27;;;12.00;;
8317;SDS011;4196;48.926;8.964;2022-12-18T14:03:19;25.57;;;12.70;;
8317;SDS011;4196;48.926;8.964;2022-12-18T14:06:12;19.87;;;11.30;;
8317;SDS011;4196;48.926;8.964;2022-12-18T14:08:59;28.27;;;11.57;;
8317;SDS011;4196;48.926;8.964;2022-12-18T14:11:48;29.77;;;11.53;;
8317;SDS011;4196;48.926;8.964;2022-12-18T14:14:36;22.83;;;10.90;;
8317;SDS011;4196;48.926;8.964;2022-12-18T14:17:22;21.93;;;9.67;;
8317;SDS011;4196;48.926;8.964;2022-12-18T14:20:13;23.47;;;11.87;;
8317;SDS011;4196;48.926;8.964;2022-12-18T14:23:01;21.80;;;11.17;;
8317;SDS011;4196;48.926;8.964;2022-12-18T14:25:47;27.03;;;13.50;;
8317;SDS011;4196;48.926;8.964;2022-12-18T14:28:42;28.27;;;11.93;;
8317;SDS011;4196;48.926;8.964;2022-12-18T14:31:30;27.53;;;11.47;;
8317;SDS011;4196;48.926;8.964;2022-12-18T14:34:17;22.37;;;10.37;;
8317;SDS011;4196;48.926;8.964;2022-12-18T14:37:05;27.90;;;11.07;;
8317;SDS011;4196;48.926;8.964;2022-12-18T14:40:02;24.77;;;10.13;;
8317;SDS011;4196;48.926;8.964;2022-12-18T14:42:56;26.77;;;11.20;;
8317;SDS011;4196;48.926;8.964;2022-12-18T14:45:43;27.10;;;12.20;;
8317;SDS011;4196;48.926;8.964;2022-12-18T14:48:36;30.93;;;12.17;;
8317;SDS011;4196;48.926;8.964;2022-12-18T14:51:27;24.40;;;10.83;;
8317;SDS011;4196;48.926;8.964;2022-12-18T14:54:16;23.67;;;11.40;;
8317;SDS011;4196;48.926;8.964;2022-12-18T14:57:05;26.67;;;11.63;;
8317;SDS011;4196;48.926;8.964;2022-12-18T15:00:04;24.33;;;10.30;;
8317;SDS011;4196;48.926;8.964;2022-12-18T15:02:54;24.67;;;9.63;;
8317;SDS011;4196;48.926;8.964;2022-12-18T15:05:42;24.97;;;12.67;;
8317;SDS011;4196;48.926;8.964;2022-12-18T15:08:30;28.70;;;11.67;;
8317;SDS011;4196;48.926;8.964;2022-12-18T15:11:25;34.57;;;13.47;;
8317;SDS011;4196;48.926;8.964;2022-12-18T15:14:30;24.27;;;10.60;;
8317;SDS011;4196;48.926;8.964;2022-12-18T15:17:22;26.40;;;11.43;;
8317;SDS011;4196;48.926;8.964;2022-12-18T15:20:12;29.07;;;12.53;;
8317;SDS011;4196;48.926;8.964;2022-12-18T15:23:00;31.40;;;12.03;;
8317;SDS011;4196;48.926;8.964;2022-12-18T15:25:46;24.53;;;12.50;;
8317;SDS011;4196;48.926;8.964;2022-12-18T15:28:55;39.17;;;14.20;;
8317;SDS011;4196;48.926;8.964;2022-12-18T15:31:45;29.90;;;14.07;;
8317;SDS011;4196;48.926;8.964;2022-12-18T15:37:56;37.20;;;12.40;;
8317;SDS011;4196;48.926;8.964;2022-12-18T15:40:43;38.50;;;14.63;;
8317;SDS011;4196;48.926;8.964;2022-12-18T15:43:30;40.67;;;13.63;;
8317;SDS011;4196;48.926;8.964;2022-12-18T15:46:20;32.43;;;14.53;;
8317;SDS011;4196;48.926;8.964;2022-12-18T15:49:08;35.97;;;13.23;;
8317;SDS011;4196;48.926;8.964;2022-12-18T15:51:56;28.57;;;12.23;;
8317;SDS011;4196;48.926;8.964;2022-12-18T15:54:45;35.30;;;15.47;;
8317;SDS011;4196;48.926;8.964;2022-12-18T15:58:04;25.10;;;10.80;;
8317;SDS011;4196;48.926;8.964;2022-12-18T16:00:58;32.07;;;14.57;;
8317;SDS011;4196;48.926;8.964;2022-12-18T16:03:49;41.47;;;15.60;;
8317;SDS011;4196;48.926;8.964;2022-12-18T16:06:36;45.10;;;17.07;;
8317;SDS011;4196;48.926;8.964;2022-12-18T16:09:42;39.27;;;14.57;;
8317;SDS011;4196;48.926;8.964;2022-12-18T16:12:28;37.13;;;15.87;;
8317;SDS011;4196;48.926;8.964;2022-12-18T16:15:15;27.77;;;14.07;;
8317;SDS011;4196;48.926;8.964;2022-12-18T16:18:09;31.87;;;12.50;;
8317;SDS011;4196;48.926;8.964;2022-12-18T16:20:55;31.87;;;13.90;;
8317;SDS011;4196;48.926;8.964;2022-12-18T16:23:41;27.03;;;12.23;;
8317;SDS011;4196;48.926;8.964;2022-12-18T16:26:31;26.70;;;12.30;;
8317;SDS011;4196;48.926;8.964;2022-12-18T16:29:18;34.00;;;13.97;;
8317;SDS011;4196;48.926;8.964;2022-12-18T16:32:05;29.47;;;12.30;;
8317;SDS011;4196;48.926;8.964;2022-12-18T16:34:51;34.53;;;13.70;;
8317;SDS011;4196;48.926;8.964;2022-12-18T16:37:38;37.77;;;16.17;;
8317;SDS011;4196;48.926;8.964;2022-12-18T16:40:25;33.30;;;13.73;;
8317;SDS011;4196;48.926;8.964;2022-12-18T16:43:11;35.97;;;15.03;;
8317;SDS011;4196;48.926;8.964;2022-12-18T16:45:58;35.67;;;14.10;;
8317;SDS011;4196;48.926;8.964;2022-12-18T16:48:45;37.10;;;13.67;;
8317;SDS011;4196;48.926;8.964;2022-12-18T16:51:31;42.17;;;14.67;;
8317;SDS011;4196;48.926;8.964;2022-12-18T16:54:19;32.73;;;15.13;;
8317;SDS011;4196;48.926;8.964;2022-12-18T16:57:08;31.87;;;12.37;;
8317;SDS011;4196;48.926;8.964;2022-12-18T16:59:57;32.60;;;14.53;;
8317;SDS011;4196;48.926;8.964;2022-12-18T17:02:50;36.60;;;16.80;;
8317;SDS011;4196;48.926;8.964;2022-12-18T17:05:37;39.23;;;14.90;;
8317;SDS011;4196;48.926;8.964;2022-12-18T17:08:23;29.47;;;12.23;;
8317;SDS011;4196;48.926;8.964;2022-12-18T17:11:10;27.33;;;13.00;;
8317;SDS011;4196;48.926;8.964;2022-12-18T17:13:56;34.10;;;14.27;;
8317;SDS011;4196;48.926;8.964;2022-12-18T17:16:45;37.57;;;14.60;;
8317;SDS011;4196;48.926;8.964;2022-12-18T17:19:32;43.00;;;15.27;;
8317;SDS011;4196;48.926;8.964;2022-12-18T17:22:19;28.47;;;14.37;;
8317;SDS011;4196;48.926;8.964;2022-12-18T17:25:06;30.13;;;13.53;;
8317;SDS011;4196;48.926;8.964;2022-12-18T17:27:53;35.43;;;15.17;;
8317;SDS011;4196;48.926;8.964;2022-12-18T17:30:39;28.50;;;12.80;;
8317;SDS011;4196;48.926;8.964;2022-12-18T17:33:28;34.53;;;14.10;;
8317;SDS011;4196;48.926;8.964;2022-12-18T17:36:15;36.80;;;12.87;;
8317;SDS011;4196;48.926;8.964;2022-12-18T17:39:02;33.67;;;14.67;;
8317;SDS011;4196;48.926;8.964;2022-12-18T17:41:50;29.03;;;14.43;;
8317;SDS011;4196;48.926;8.964;2022-12-18T17:44:36;30.70;;;13.90;;
8317;SDS011;4196;48.926;8.964;2022-12-18T17:47:23;25.97;;;12.20;;
8317;SDS011;4196;48.926;8.964;2022-12-18T17:50:09;30.13;;;12.60;;
8317;SDS011;4196;48.926;8.964;2022-12-18T17:52:56;37.40;;;13.63;;
8317;SDS011;4196;48.926;8.964;2022-12-18T17:55:43;32.30;;;11.07;;
8317;SDS011;4196;48.926;8.964;2022-12-18T17:58:29;31.33;;;14.77;;
8317;SDS011;4196;48.926;8.964;2022-12-18T18:01:18;34.13;;;12.20;;
8317;SDS011;4196;48.926;8.964;2022-12-18T18:04:06;33.97;;;13.13;;
8317;SDS011;4196;48.926;8.964;2022-12-18T18:06:53;32.10;;;13.43;;
8317;SDS011;4196;48.926;8.964;2022-12-18T18:09:40;31.70;;;12.50;;
8317;SDS011;4196;48.926;8.964;2022-12-18T18:12:27;35.47;;;14.50;;
8317;SDS011;4196;48.926;8.964;2022-12-18T18:15:32;31.63;;;13.60;;
8317;SDS011;4196;48.926;8.964;2022-12-18T18:18:20;28.10;;;13.43;;
8317;SDS011;4196;48.926;8.964;2022-12-18T18:21:08;33.80;;;14.43;;
8317;SDS011;4196;48.926;8.964;2022-12-18T18:23:58;29.87;;;12.00;;
8317;SDS011;4196;48.926;8.964;2022-12-18T18:26:45;31.07;;;13.10;;
8317;SDS011;4196;48.926;8.964;2022-12-18T18:29:32;31.87;;;13.47;;
8317;SDS011;4196;48.926;8.964;2022-12-18T18:32:18;29.30;;;13.40;;
8317;SDS011;4196;48.926;8.964;2022-12-18T18:35:06;30.77;;;12.63;;
8317;SDS011;4196;48.926;8.964;2022-12-18T18:38:09;24.70;;;13.07;;
8317;SDS011;4196;48.926;8.964;2022-12-18T18:40:59;27.63;;;12.40;;
8317;SDS011;4196;48.926;8.964;2022-12-18T18:43:47;35.97;;;15.00;;
8317;SDS011;4196;48.926;8.964;2022-12-18T18:46:34;30.40;;;13.77;;
8317;SDS011;4196;48.926;8.964;2022-12-18T18:49:20;33.73;;;13.80;;
8317;SDS011;4196;48.926;8.964;2022-12-18T18:52:09;31.23;;;13.60;;
8317;SDS011;4196;48.926;8.964;2022-12-18T18:54:55;34.10;;;13.27;;
8317;SDS011;4196;48.926;8.964;2022-12-18T18:57:58;35.13;;;14.77;;
8317;SDS011;4196;48.926;8.964;2022-12-18T19:00:52;32.07;;;14.03;;